Clarks, Louisiana
Current Conditions -  °F | °C
As of 4:53 PM on Sunday 21 Dec 2014 (Local Time) from KMLU Reporting Station
Clear Clear  
Wind Chill: 57°   Ceiling: Unl
Heat Index: 57°   Visibility: 10mi
Dew Point: 46°   Wind: 5mph
Humidity: 67%   Direction: 120°ESE
Pressure: 29.98"   Gusts: NA
Location:  32.03°N, 92.14°W
Report Text: KMLU 212253Z 12004KT 10SM CLR 14/08 A2998 RMK AO2 SLP152 T01390078
Loading
Personal Weather Stations






























Interactive Weather Map New forecast layout! Learn more

10-Day Weather Forecast

Advertisements
Track Severe Weather on mobile